Time,TemperatureF,DewpointF,PressureIn,WindDirection,WindDirectionDegrees,WindSpeedMPH,WindSpeedGustMPH,Humidity,HourlyPrecipIn,Conditions,Clouds,dailyrainin,SoftwareType,DateUTC
2013-08-31 00:02:00,78.3,74.1,29.83,SW,217,2.0,2.0,87,0.00,,,0.00,WUHU216DAVISVP2,2013-08-31 05:02:00,
2013-08-31 00:07:00,78.3,74.1,29.83,SSW,202,2.0,2.0,87,0.00,,,0.00,WUHU216DAVISVP2,2013-08-31 05:07:00,
2013-08-31 00:11:00,78.1,73.9,29.83,SSW,202,2.0,2.0,87,0.00,,,0.00,WUHU216DAVISVP2,2013-08-31 05:11:00,
2013-08-31 00:16:00,77.9,74.1,29.83,SSW,205,0.0,3.0,88,0.00,,,0.00,WUHU216DAVISVP2,2013-08-31 05:16:00,
2013-08-31 00:21:00,77.9,74.1,29.83,SSW,204,0.0,3.0,88,0.00,,,0.00,WUHU216DAVISVP2,2013-08-31 05:21:00,
2013-08-31 00:26:00,77.7,73.9,29.83,SSW,196,0.0,1.0,88,0.00,,,0.00,WUHU216DAVISVP2,2013-08-31 05:26:00,
2013-08-31 00:32:00,77.7,73.9,29.83,SSW,206,2.0,2.0,88,0.00,,,0.00,WUHU216DAVISVP2,2013-08-31 05:32:00,
2013-08-31 00:37:00,77.7,73.9,29.83,SSW,204,2.0,2.0,88,0.00,,,0.00,WUHU216DAVISVP2,2013-08-31 05:37:00,
2013-08-31 00:42:00,77.6,73.8,29.83,SW,221,1.0,2.0,88,0.00,,,0.00,WUHU216DAVISVP2,2013-08-31 05:42:00,
2013-08-31 00:47:00,77.4,73.9,29.83,SSW,211,1.0,2.0,89,0.00,,,0.00,WUHU216DAVISVP2,2013-08-31 05:47:00,
2013-08-31 00:52:00,77.2,73.7,29.83,SW,217,1.0,2.0,89,0.00,,,0.00,WUHU216DAVISVP2,2013-08-31 05:52:00,
2013-08-31 00:57:00,77.1,73.6,29.82,SSW,210,1.0,2.0,89,0.00,,,0.00,WUHU216DAVISVP2,2013-08-31 05:57:00,
2013-08-31 01:02:00,77.0,73.8,29.82,SW,231,1.0,2.0,90,0.00,,,0.00,WUHU216DAVISVP2,2013-08-31 06:02:00,
2013-08-31 01:07:00,76.9,73.7,29.82,SW,222,1.0,2.0,90,0.00,,,0.00,WUHU216DAVISVP2,2013-08-31 06:07:00,
2013-08-31 01:12:00,76.8,73.6,29.82,SSW,210,2.0,3.0,90,0.00,,,0.00,WUHU216DAVISVP2,2013-08-31 06:12:00,
2013-08-31 01:17:00,76.8,73.6,29.82,SW,226,2.0,3.0,90,0.00,,,0.00,WUHU216DAVISVP2,2013-08-31 06:17:00,
2013-08-31 01:22:00,76.9,73.7,29.82,SSW,203,3.0,3.0,90,0.00,,,0.00,WUHU216DAVISVP2,2013-08-31 06:22:00,
2013-08-31 01:27:00,76.9,73.7,29.82,SW,220,3.0,4.0,90,0.00,,,0.00,WUHU216DAVISVP2,2013-08-31 06:27:00,
2013-08-31 01:32:00,76.9,73.7,29.82,SSW,200,3.0,4.0,90,0.00,,,0.00,WUHU216DAVISVP2,2013-08-31 06:32:00,
2013-08-31 01:37:00,77.0,73.8,29.82,SSW,205,3.0,4.0,90,0.00,,,0.00,WUHU216DAVISVP2,2013-08-31 06:37:00,
2013-08-31 01:42:00,76.9,73.7,29.82,SSW,207,3.0,4.0,90,0.00,,,0.00,WUHU216DAVISVP2,2013-08-31 06:42:00,
2013-08-31 01:47:00,77.0,73.8,29.81,SW,215,3.0,4.0,90,0.00,,,0.00,WUHU216DAVISVP2,2013-08-31 06:47:00,
2013-08-31 01:52:00,77.2,74.0,29.82,SW,219,2.0,4.0,90,0.00,,,0.00,WUHU216DAVISVP2,2013-08-31 06:52:00,
2013-08-31 01:57:00,77.3,74.1,29.81,SSW,207,2.0,4.0,90,0.00,,,0.00,WUHU216DAVISVP2,2013-08-31 06:57:00,
2013-08-31 02:02:00,77.1,73.9,29.82,SW,229,1.0,3.0,90,0.00,,,0.00,WUHU216DAVISVP2,2013-08-31 07:02:00,
2013-08-31 02:07:00,76.9,73.7,29.82,SSW,205,2.0,2.0,90,0.00,,,0.00,WUHU216DAVISVP2,2013-08-31 07:07:00,
2013-08-31 02:12:00,76.9,73.7,29.81,SW,225,1.0,3.0,90,0.00,,,0.00,WUHU216DAVISVP2,2013-08-31 07:12:00,
2013-08-31 02:17:00,76.8,73.6,29.81,SW,218,2.0,3.0,90,0.00,,,0.00,WUHU216DAVISVP2,2013-08-31 07:17:00,
2013-08-31 02:22:00,76.8,73.6,29.82,SSW,205,1.0,2.0,90,0.00,,,0.00,WUHU216DAVISVP2,2013-08-31 07:22:00,
2013-08-31 02:27:00,76.7,73.5,29.81,SSW,202,2.0,3.0,90,0.00,,,0.00,WUHU216DAVISVP2,2013-08-31 07:27:00,
2013-08-31 02:32:00,76.7,73.5,29.81,SSW,211,1.0,3.0,90,0.00,,,0.00,WUHU216DAVISVP2,2013-08-31 07:32:00,
2013-08-31 02:37:00,76.6,73.8,29.82,SW,229,0.0,3.0,91,0.00,,,0.00,WUHU216DAVISVP2,2013-08-31 07:37:00,
2013-08-31 02:42:00,76.5,73.7,29.82,South,179,0.0,1.0,91,0.00,,,0.00,WUHU216DAVISVP2,2013-08-31 07:42:00,
2013-08-31 02:47:00,76.5,73.7,29.82,SW,229,4.0,4.0,91,0.00,,,0.00,WUHU216DAVISVP2,2013-08-31 07:47:00,
2013-08-31 02:52:00,76.6,73.8,29.82,SW,229,4.0,5.0,91,0.00,,,0.00,WUHU216DAVISVP2,2013-08-31 07:52:00,
2013-08-31 02:57:00,76.7,73.9,29.82,SSW,203,0.0,5.0,91,0.00,,,0.00,WUHU216DAVISVP2,2013-08-31 07:57:00,
2013-08-31 03:02:00,76.6,73.8,29.82,SSW,213,0.0,3.0,91,0.00,,,0.00,WUHU216DAVISVP2,2013-08-31 08:02:00,
2013-08-31 03:07:00,76.5,73.7,29.82,SW,225,1.0,2.0,91,0.00,,,0.00,WUHU216DAVISVP2,2013-08-31 08:07:00,
2013-08-31 03:12:00,76.4,73.6,29.82,SSW,207,2.0,2.0,91,0.00,,,0.00,WUHU216DAVISVP2,2013-08-31 08:12:00,
2013-08-31 03:17:00,76.4,73.6,29.82,SSW,210,1.0,2.0,91,0.00,,,0.00,WUHU216DAVISVP2,2013-08-31 08:17:00,
2013-08-31 03:22:00,76.5,73.7,29.82,SSW,205,2.0,3.0,91,0.00,,,0.00,WUHU216DAVISVP2,2013-08-31 08:22:00,
2013-08-31 03:26:00,76.5,73.7,29.82,SSW,205,1.0,3.0,91,0.00,,,0.00,WUHU216DAVISVP2,2013-08-31 08:26:00,
2013-08-31 03:31:00,76.6,73.8,29.82,SSW,208,1.0,2.0,91,0.00,,,0.00,WUHU216DAVISVP2,2013-08-31 08:31:00,
2013-08-31 03:36:00,76.6,73.8,29.82,SSW,196,0.0,2.0,91,0.00,,,0.00,WUHU216DAVISVP2,2013-08-31 08:36:00,
2013-08-31 03:41:00,76.7,73.9,29.82,SSW,209,0.0,1.0,91,0.00,,,0.00,WUHU216DAVISVP2,2013-08-31 08:41:00,
2013-08-31 03:46:00,76.6,73.8,29.82,SSW,209,0.0,0.0,91,0.00,,,0.00,WUHU216DAVISVP2,2013-08-31 08:46:00,
2013-08-31 03:51:00,76.5,73.7,29.82,SSW,208,0.0,0.0,91,0.00,,,0.00,WUHU216DAVISVP2,2013-08-31 08:51:00,
2013-08-31 03:56:00,76.4,73.6,29.82,SSW,208,0.0,0.0,91,0.00,,,0.00,WUHU216DAVISVP2,2013-08-31 08:56:00,
2013-08-31 04:01:00,76.3,73.5,29.82,SSW,209,0.0,0.0,91,0.00,,,0.00,WUHU216DAVISVP2,2013-08-31 09:01:00,
2013-08-31 04:06:00,76.2,73.4,29.82,SSW,209,0.0,0.0,91,0.00,,,0.00,WUHU216DAVISVP2,2013-08-31 09:06:00,
2013-08-31 04:11:00,76.2,73.4,29.82,SSW,209,0.0,0.0,91,0.00,,,0.00,WUHU216DAVISVP2,2013-08-31 09:11:00,
2013-08-31 04:16:00,76.2,73.4,29.82,SSW,209,0.0,0.0,91,0.00,,,0.00,WUHU216DAVISVP2,2013-08-31 09:16:00,
2013-08-31 04:21:00,76.0,73.2,29.82,SSW,209,0.0,0.0,91,0.00,,,0.00,WUHU216DAVISVP2,2013-08-31 09:21:00,
2013-08-31 04:26:00,75.9,73.1,29.82,East,93,0.0,0.0,91,0.00,,,0.00,WUHU216DAVISVP2,2013-08-31 09:26:00,
2013-08-31 04:31:00,75.9,73.4,29.82,NE,56,3.0,3.0,92,0.00,,,0.00,WUHU216DAVISVP2,2013-08-31 09:31:00,
2013-08-31 04:36:00,76.0,73.5,29.82,ENE,65,2.0,5.0,92,0.00,,,0.00,WUHU216DAVISVP2,2013-08-31 09:36:00,
2013-08-31 04:41:00,75.9,73.4,29.82,ENE,65,1.0,5.0,92,0.00,,,0.00,WUHU216DAVISVP2,2013-08-31 09:41:00,
2013-08-31 04:46:00,75.8,73.3,29.82,ENE,65,0.0,2.0,92,0.00,,,0.00,WUHU216DAVISVP2,2013-08-31 09:46:00,
2013-08-31 04:51:00,75.7,73.2,29.82,ENE,65,0.0,1.0,92,0.00,,,0.00,WUHU216DAVISVP2,2013-08-31 09:51:00,
2013-08-31 04:56:00,75.6,73.1,29.82,SW,228,0.0,0.0,92,0.00,,,0.00,WUHU216DAVISVP2,2013-08-31 09:56:00,
2013-08-31 05:01:00,75.4,72.9,29.82,SW,228,0.0,0.0,92,0.00,,,0.00,WUHU216DAVISVP2,2013-08-31 10:01:00,
2013-08-31 05:06:00,75.2,72.7,29.82,SW,223,0.0,0.0,92,0.00,,,0.00,WUHU216DAVISVP2,2013-08-31 10:06:00,
2013-08-31 05:11:00,75.1,72.9,29.82,SSW,209,0.0,0.0,93,0.00,,,0.00,WUHU216DAVISVP2,2013-08-31 10:11:00,
2013-08-31 05:16:00,75.0,72.8,29.82,East,89,0.0,0.0,93,0.00,,,0.00,WUHU216DAVISVP2,2013-08-31 10:16:00,
2013-08-31 05:21:00,74.9,72.7,29.82,ENE,76,0.0,0.0,93,0.00,,,0.00,WUHU216DAVISVP2,2013-08-31 10:21:00,
2013-08-31 05:26:00,74.5,72.3,29.82,ENE,76,0.0,0.0,93,0.00,,,0.00,WUHU216DAVISVP2,2013-08-31 10:26:00,
2013-08-31 05:31:00,74.2,72.0,29.81,ENE,76,0.0,0.0,93,0.00,,,0.00,WUHU216DAVISVP2,2013-08-31 10:31:00,
2013-08-31 05:36:00,74.1,72.2,29.81,ENE,76,0.0,0.0,94,0.00,,,0.00,WUHU216DAVISVP2,2013-08-31 10:36:00,
2013-08-31 05:41:00,74.1,72.2,29.81,ENE,76,0.0,0.0,94,0.00,,,0.00,WUHU216DAVISVP2,2013-08-31 10:41:00,
2013-08-31 05:46:00,74.0,72.2,29.81,ENE,76,0.0,0.0,94,0.00,,,0.00,WUHU216DAVISVP2,2013-08-31 10:46:00,
2013-08-31 05:51:00,73.9,72.1,29.81,ENE,76,0.0,0.0,94,0.00,,,0.00,WUHU216DAVISVP2,2013-08-31 10:51:00,
2013-08-31 05:56:00,73.9,72.1,29.81,ENE,76,0.0,0.0,94,0.00,,,0.00,WUHU216DAVISVP2,2013-08-31 10:56:00,
2013-08-31 06:01:00,73.9,72.0,29.81,ENE,76,0.0,0.0,94,0.00,,,0.00,WUHU216DAVISVP2,2013-08-31 11:01:00,
2013-08-31 06:06:00,73.7,71.8,29.82,ENE,76,0.0,0.0,94,0.00,,,0.00,WUHU216DAVISVP2,2013-08-31 11:06:00,
2013-08-31 06:11:00,73.7,71.8,29.81,ENE,76,0.0,0.0,94,0.00,,,0.00,WUHU216DAVISVP2,2013-08-31 11:11:00,
2013-08-31 06:16:00,73.6,72.0,29.81,ENE,76,0.0,0.0,95,0.00,,,0.00,WUHU216DAVISVP2,2013-08-31 11:16:00,
2013-08-31 06:21:00,73.9,72.3,29.82,ENE,76,0.0,0.0,95,0.00,,,0.00,WUHU216DAVISVP2,2013-08-31 11:21:00,
2013-08-31 06:26:00,73.9,72.3,29.82,ENE,76,0.0,0.0,95,0.00,,,0.00,WUHU216DAVISVP2,2013-08-31 11:26:00,
2013-08-31 06:31:00,74.0,72.4,29.82,ENE,76,0.0,0.0,95,0.00,,,0.00,WUHU216DAVISVP2,2013-08-31 11:31:00,
2013-08-31 06:36:00,73.9,72.3,29.82,ENE,76,0.0,0.0,95,0.00,,,0.00,WUHU216DAVISVP2,2013-08-31 11:36:00,
2013-08-31 06:41:00,73.9,72.0,29.83,ENE,76,0.0,0.0,94,0.00,,,0.00,WUHU216DAVISVP2,2013-08-31 11:41:00,
2013-08-31 06:46:00,73.9,72.3,29.83,ENE,76,0.0,0.0,95,0.00,,,0.00,WUHU216DAVISVP2,2013-08-31 11:46:00,
2013-08-31 06:51:00,74.1,72.5,29.83,ENE,76,0.0,0.0,95,0.00,,,0.00,WUHU216DAVISVP2,2013-08-31 11:51:00,
2013-08-31 06:56:00,74.3,72.7,29.83,ENE,73,0.0,0.0,95,0.00,,,0.00,WUHU216DAVISVP2,2013-08-31 11:56:00,
2013-08-31 07:01:00,74.4,72.6,29.83,ENE,72,0.0,0.0,94,0.00,,,0.00,WUHU216DAVISVP2,2013-08-31 12:01:00,
2013-08-31 07:06:00,74.9,73.0,29.83,ENE,72,0.0,0.0,94,0.00,,,0.00,WUHU216DAVISVP2,2013-08-31 12:06:00,
2013-08-31 07:11:00,75.2,73.0,29.83,ENE,72,0.0,0.0,93,0.00,,,0.00,WUHU216DAVISVP2,2013-08-31 12:11:00,
2013-08-31 07:16:00,75.5,73.3,29.83,ENE,68,1.0,1.0,93,0.00,,,0.00,WUHU216DAVISVP2,2013-08-31 12:16:00,
2013-08-31 07:21:00,75.8,73.6,29.83,ENE,70,2.0,3.0,93,0.00,,,0.00,WUHU216DAVISVP2,2013-08-31 12:21:00,
2013-08-31 07:26:00,76.2,73.7,29.83,East,84,0.0,4.0,92,0.00,,,0.00,WUHU216DAVISVP2,2013-08-31 12:26:00,
2013-08-31 07:31:00,76.6,73.8,29.83,ENE,66,1.0,4.0,91,0.00,,,0.00,WUHU216DAVISVP2,2013-08-31 12:31:00,
2013-08-31 07:36:00,77.3,74.5,29.83,East,79,0.0,3.0,91,0.00,,,0.00,WUHU216DAVISVP2,2013-08-31 12:36:00,
2013-08-31 07:41:00,78.3,74.8,29.84,East,79,0.0,1.0,89,0.00,,,0.00,WUHU216DAVISVP2,2013-08-31 12:41:00,
2013-08-31 07:46:00,79.0,75.1,29.84,East,79,0.0,1.0,88,0.00,,,0.00,WUHU216DAVISVP2,2013-08-31 12:46:00,
2013-08-31 07:51:00,79.5,75.3,29.84,ENE,78,0.0,0.0,87,0.00,,,0.00,WUHU216DAVISVP2,2013-08-31 12:51:00,
2013-08-31 07:56:00,80.1,75.2,29.84,ENE,77,0.0,2.0,85,0.00,,,0.00,WUHU216DAVISVP2,2013-08-31 12:56:00,
2013-08-31 08:01:00,80.8,75.9,29.84,ENE,77,0.0,2.0,85,0.00,,,0.00,WUHU216DAVISVP2,2013-08-31 13:01:00,
2013-08-31 08:06:00,80.9,75.3,29.84,SE,141,0.0,0.0,83,0.00,,,0.00,WUHU216DAVISVP2,2013-08-31 13:06:00,
2013-08-31 08:11:00,80.6,75.7,29.84,SW,214,0.0,0.0,85,0.00,,,0.00,WUHU216DAVISVP2,2013-08-31 13:11:00,
2013-08-31 08:16:00,80.7,75.5,29.84,SW,222,0.0,1.0,84,0.00,,,0.00,WUHU216DAVISVP2,2013-08-31 13:16:00,
2013-08-31 08:21:00,81.0,76.1,29.84,WSW,238,0.0,1.0,85,0.00,,,0.00,WUHU216DAVISVP2,2013-08-31 13:21:00,
2013-08-31 08:26:00,81.2,76.0,29.84,SW,221,0.0,2.0,84,0.00,,,0.00,WUHU216DAVISVP2,2013-08-31 13:26:00,
2013-08-31 08:31:00,81.6,75.9,29.84,SSW,197,2.0,3.0,83,0.00,,,0.00,WUHU216DAVISVP2,2013-08-31 13:31:00,
2013-08-31 08:36:00,82.0,76.1,29.84,SSW,209,0.0,3.0,82,0.00,,,0.00,WUHU216DAVISVP2,2013-08-31 13:36:00,
2013-08-31 08:41:00,82.3,76.0,29.84,SSW,198,1.0,2.0,81,0.00,,,0.00,WUHU216DAVISVP2,2013-08-31 13:41:00,
2013-08-31 08:46:00,82.4,76.1,29.84,SW,215,2.0,5.0,81,0.00,,,0.00,WUHU216DAVISVP2,2013-08-31 13:46:00,
2013-08-31 08:51:00,82.5,76.2,29.84,SSW,204,3.0,5.0,81,0.00,,,0.00,WUHU216DAVISVP2,2013-08-31 13:51:00,
2013-08-31 08:56:00,82.8,76.8,29.84,SSW,207,1.0,5.0,82,0.00,,,0.00,WUHU216DAVISVP2,2013-08-31 13:56:00,
2013-08-31 09:01:00,83.2,76.9,29.84,SW,214,4.0,4.0,81,0.00,,,0.00,WUHU216DAVISVP2,2013-08-31 14:01:00,
2013-08-31 09:06:00,83.4,77.1,29.84,SSW,202,2.0,4.0,81,0.00,,,0.00,WUHU216DAVISVP2,2013-08-31 14:06:00,
2013-08-31 09:11:00,83.9,77.2,29.84,SW,216,3.0,4.0,80,0.00,,,0.00,WUHU216DAVISVP2,2013-08-31 14:11:00,
2013-08-31 09:16:00,84.3,77.6,29.84,SW,228,3.0,3.0,80,0.00,,,0.00,WUHU216DAVISVP2,2013-08-31 14:16:00,
2013-08-31 09:21:00,84.5,76.7,29.84,SSW,210,3.0,5.0,77,0.00,,,0.00,WUHU216DAVISVP2,2013-08-31 14:21:00,
2013-08-31 09:26:00,84.6,76.6,29.84,SSW,205,3.0,5.0,77,0.00,,,0.00,WUHU216DAVISVP2,2013-08-31 14:26:00,
2013-08-31 09:31:00,85.0,77.2,29.84,SW,223,2.0,5.0,77,0.00,,,0.00,WUHU216DAVISVP2,2013-08-31 14:31:00,
2013-08-31 09:36:00,85.3,76.7,29.84,SW,215,4.0,5.0,75,0.00,,,0.00,WUHU216DAVISVP2,2013-08-31 14:36:00,
2013-08-31 09:41:00,85.6,76.6,29.84,SW,220,4.0,5.0,74,0.00,,,0.00,WUHU216DAVISVP2,2013-08-31 14:41:00,
2013-08-31 09:46:00,85.7,76.7,29.84,SW,222,4.0,5.0,74,0.00,,,0.00,WUHU216DAVISVP2,2013-08-31 14:46:00,
2013-08-31 09:51:00,86.2,77.5,29.84,SSW,201,3.0,5.0,75,0.00,,,0.00,WUHU216DAVISVP2,2013-08-31 14:51:00,
2013-08-31 09:56:00,86.5,77.0,29.84,SSW,203,5.0,5.0,73,0.00,,,0.00,WUHU216DAVISVP2,2013-08-31 14:56:00,
2013-08-31 10:01:00,86.8,76.9,29.84,SW,236,3.0,5.0,72,0.00,,,0.00,WUHU216DAVISVP2,2013-08-31 15:01:00,
2013-08-31 10:06:00,86.9,77.0,29.84,SSW,202,3.0,5.0,72,0.00,,,0.00,WUHU216DAVISVP2,2013-08-31 15:06:00,
2013-08-31 10:11:00,87.3,76.7,29.84,SW,224,2.0,5.0,71,0.00,,,0.00,WUHU216DAVISVP2,2013-08-31 15:11:00,
2013-08-31 10:16:00,87.6,77.5,29.84,WSW,250,2.0,5.0,72,0.00,,,0.00,WUHU216DAVISVP2,2013-08-31 15:16:00,
2013-08-31 10:21:00,87.6,76.9,29.83,SW,229,4.0,6.0,70,0.00,,,0.00,WUHU216DAVISVP2,2013-08-31 15:21:00,
2013-08-31 10:26:00,87.6,76.9,29.84,WSW,243,4.0,6.0,70,0.00,,,0.00,WUHU216DAVISVP2,2013-08-31 15:26:00,
2013-08-31 10:31:00,87.9,77.2,29.83,SSW,205,3.0,5.0,70,0.00,,,0.00,WUHU216DAVISVP2,2013-08-31 15:31:00,
2013-08-31 10:36:00,88.3,77.1,29.83,SSW,203,2.0,5.0,69,0.00,,,0.00,WUHU216DAVISVP2,2013-08-31 15:36:00,
2013-08-31 10:41:00,88.7,76.6,29.83,SSW,204,2.0,5.0,67,0.00,,,0.00,WUHU216DAVISVP2,2013-08-31 15:41:00,
2013-08-31 10:46:00,88.9,77.7,29.83,SW,222,1.0,5.0,69,0.00,,,0.00,WUHU216DAVISVP2,2013-08-31 15:46:00,
2013-08-31 10:51:00,89.5,76.5,29.83,SSW,211,2.0,6.0,65,0.00,,,0.00,WUHU216DAVISVP2,2013-08-31 15:51:00,
2013-08-31 10:56:00,89.7,77.1,29.83,South,184,2.0,6.0,66,0.00,,,0.00,WUHU216DAVISVP2,2013-08-31 15:56:00,
2013-08-31 11:01:00,90.1,77.1,29.83,SW,226,3.0,6.0,65,0.00,,,0.00,WUHU216DAVISVP2,2013-08-31 16:01:00,
2013-08-31 11:06:00,90.6,77.1,29.83,SW,217,6.0,7.0,64,0.00,,,0.00,WUHU216DAVISVP2,2013-08-31 16:06:00,
2013-08-31 11:11:00,90.5,77.0,29.83,SSW,203,1.0,7.0,64,0.00,,,0.00,WUHU216DAVISVP2,2013-08-31 16:11:00,
2013-08-31 11:16:00,90.9,76.9,29.83,SW,228,1.0,7.0,63,0.00,,,0.00,WUHU216DAVISVP2,2013-08-31 16:16:00,
2013-08-31 11:21:00,91.1,77.1,29.83,WSW,245,3.0,7.0,63,0.00,,,0.00,WUHU216DAVISVP2,2013-08-31 16:21:00,
2013-08-31 11:26:00,91.6,78.0,29.83,SSW,198,4.0,7.0,64,0.00,,,0.00,WUHU216DAVISVP2,2013-08-31 16:26:00,
2013-08-31 11:31:00,91.8,76.7,29.83,WSW,241,5.0,8.0,61,0.00,,,0.00,WUHU216DAVISVP2,2013-08-31 16:31:00,
2013-08-31 11:36:00,91.7,78.1,29.82,SW,226,4.0,8.0,64,0.00,,,0.00,WUHU216DAVISVP2,2013-08-31 16:36:00,
2013-08-31 11:41:00,91.9,77.3,29.82,SSW,200,4.0,7.0,62,0.00,,,0.00,WUHU216DAVISVP2,2013-08-31 16:41:00,
2013-08-31 11:46:00,92.2,77.6,29.82,WSW,238,2.0,8.0,62,0.00,,,0.00,WUHU216DAVISVP2,2013-08-31 16:46:00,
2013-08-31 11:51:00,92.5,76.9,29.82,SSW,202,1.0,8.0,60,0.00,,,0.00,WUHU216DAVISVP2,2013-08-31 16:51:00,
2013-08-31 11:56:00,92.7,77.6,29.81,SSW,207,5.0,7.0,61,0.00,,,0.00,WUHU216DAVISVP2,2013-08-31 16:56:00,
2013-08-31 12:01:00,92.7,76.6,29.81,SSW,200,5.0,7.0,59,0.00,,,0.00,WUHU216DAVISVP2,2013-08-31 17:01:00,
2013-08-31 12:06:00,93.1,77.0,29.81,SSW,195,4.0,7.0,59,0.00,,,0.00,WUHU216DAVISVP2,2013-08-31 17:06:00,
2013-08-31 12:11:00,93.0,76.3,29.81,SW,219,3.0,8.0,58,0.00,,,0.00,WUHU216DAVISVP2,2013-08-31 17:11:00,
2013-08-31 12:16:00,93.2,77.6,29.81,West,274,2.0,8.0,60,0.00,,,0.00,WUHU216DAVISVP2,2013-08-31 17:16:00,
2013-08-31 12:21:00,93.6,76.6,29.81,SSW,198,0.0,8.0,58,0.00,,,0.00,WUHU216DAVISVP2,2013-08-31 17:21:00,
2013-08-31 12:26:00,94.3,76.2,29.81,SSW,203,3.0,5.0,56,0.00,,,0.00,WUHU216DAVISVP2,2013-08-31 17:26:00,
2013-08-31 12:31:00,94.5,76.4,29.81,SSW,210,3.0,7.0,56,0.00,,,0.00,WUHU216DAVISVP2,2013-08-31 17:31:00,
2013-08-31 12:36:00,94.4,75.7,29.80,SSW,209,4.0,8.0,55,0.00,,,0.00,WUHU216DAVISVP2,2013-08-31 17:36:00,
2013-08-31 12:41:00,94.4,77.3,29.80,SSW,210,5.0,8.0,58,0.00,,,0.00,WUHU216DAVISVP2,2013-08-31 17:41:00,
2013-08-31 12:46:00,94.7,76.0,29.80,SSW,195,2.0,7.0,55,0.00,,,0.00,WUHU216DAVISVP2,2013-08-31 17:46:00,
2013-08-31 12:51:00,94.9,76.5,29.80,WSW,253,4.0,7.0,55,0.00,,,0.00,WUHU216DAVISVP2,2013-08-31 17:51:00,
2013-08-31 12:56:00,94.8,78.0,29.80,SSW,193,5.0,7.0,58,0.00,,,0.00,WUHU216DAVISVP2,2013-08-31 17:56:00,
2013-08-31 13:01:00,95.0,75.4,29.80,SSW,198,0.0,7.0,53,0.00,,,0.00,WUHU216DAVISVP2,2013-08-31 18:01:00,
2013-08-31 13:06:00,95.5,76.5,29.80,SW,223,4.0,6.0,54,0.00,,,0.00,WUHU216DAVISVP2,2013-08-31 18:06:00,
2013-08-31 13:11:00,95.4,73.4,29.80,SW,221,7.0,8.0,49,0.00,,,0.00,WUHU216DAVISVP2,2013-08-31 18:11:00,
2013-08-31 13:16:00,95.5,75.9,29.79,SW,219,7.0,8.0,53,0.00,,,0.00,WUHU216DAVISVP2,2013-08-31 18:16:00,
2013-08-31 13:21:00,95.5,75.9,29.79,SW,218,6.0,7.0,53,0.00,,,0.00,WUHU216DAVISVP2,2013-08-31 18:21:00,
2013-08-31 13:26:00,95.7,75.3,29.79,SW,223,5.0,9.0,52,0.00,,,0.00,WUHU216DAVISVP2,2013-08-31 18:26:00,
2013-08-31 13:31:00,95.6,74.8,29.79,SSW,211,4.0,9.0,51,0.00,,,0.00,WUHU216DAVISVP2,2013-08-31 18:31:00,
2013-08-31 13:36:00,95.7,76.1,29.78,SW,217,4.0,7.0,53,0.00,,,0.00,WUHU216DAVISVP2,2013-08-31 18:36:00,
2013-08-31 13:41:00,95.7,74.3,29.78,SSW,212,3.0,9.0,50,0.00,,,0.00,WUHU216DAVISVP2,2013-08-31 18:41:00,
2013-08-31 13:46:00,96.0,73.8,29.78,SW,232,8.0,9.0,49,0.00,,,0.00,WUHU216DAVISVP2,2013-08-31 18:46:00,
2013-08-31 13:51:00,96.2,72.7,29.78,South,185,3.0,10.0,47,0.00,,,0.00,WUHU216DAVISVP2,2013-08-31 18:51:00,
2013-08-31 13:56:00,96.2,74.1,29.78,WSW,249,2.0,10.0,49,0.00,,,0.00,WUHU216DAVISVP2,2013-08-31 18:56:00,
2013-08-31 14:01:00,96.1,73.2,29.78,SW,231,4.0,8.0,48,0.00,,,0.00,WUHU216DAVISVP2,2013-08-31 19:01:00,
2013-08-31 14:06:00,96.1,75.6,29.78,SW,235,4.0,6.0,52,0.00,,,0.00,WUHU216DAVISVP2,2013-08-31 19:06:00,
2013-08-31 14:11:00,96.2,72.7,29.78,SSW,211,3.0,8.0,47,0.00,,,0.00,WUHU216DAVISVP2,2013-08-31 19:11:00,
2013-08-31 14:16:00,96.6,72.6,29.77,SSW,207,7.0,8.0,46,0.00,,,0.00,WUHU216DAVISVP2,2013-08-31 19:16:00,
2013-08-31 14:21:00,96.9,74.2,29.77,WSW,238,5.0,8.0,48,0.00,,,0.00,WUHU216DAVISVP2,2013-08-31 19:21:00,
2013-08-31 14:26:00,97.0,74.9,29.77,SSW,205,9.0,9.0,49,0.00,,,0.00,WUHU216DAVISVP2,2013-08-31 19:26:00,
2013-08-31 14:31:00,97.0,72.9,29.77,SSW,212,5.0,9.0,46,0.00,,,0.00,WUHU216DAVISVP2,2013-08-31 19:31:00,
2013-08-31 14:36:00,97.4,74.0,29.77,SSW,205,4.0,9.0,47,0.00,,,0.00,WUHU216DAVISVP2,2013-08-31 19:36:00,
2013-08-31 14:41:00,97.3,73.9,29.77,NW,325,2.0,12.0,47,0.00,,,0.00,WUHU216DAVISVP2,2013-08-31 19:41:00,
2013-08-31 14:46:00,96.9,74.2,29.77,SSW,207,4.0,12.0,48,0.00,,,0.00,WUHU216DAVISVP2,2013-08-31 19:46:00,
2013-08-31 14:51:00,96.3,74.9,29.77,SSW,201,3.0,8.0,50,0.00,,,0.00,WUHU216DAVISVP2,2013-08-31 19:51:00,
2013-08-31 14:56:00,96.2,74.1,29.76,SW,221,6.0,7.0,49,0.00,,,0.00,WUHU216DAVISVP2,2013-08-31 19:56:00,
2013-08-31 15:01:00,95.4,74.6,29.76,WSW,241,2.0,10.0,51,0.00,,,0.00,WUHU216DAVISVP2,2013-08-31 20:01:00,
2013-08-31 15:06:00,95.1,75.0,29.76,SSW,210,4.0,10.0,52,0.00,,,0.00,WUHU216DAVISVP2,2013-08-31 20:06:00,
2013-08-31 15:11:00,95.7,74.9,29.76,SSW,197,1.0,8.0,51,0.00,,,0.00,WUHU216DAVISVP2,2013-08-31 20:11:00,
2013-08-31 15:16:00,96.1,74.1,29.76,South,191,6.0,8.0,49,0.00,,,0.00,WUHU216DAVISVP2,2013-08-31 20:16:00,
2013-08-31 15:21:00,96.1,75.3,29.75,SSW,212,4.0,8.0,51,0.00,,,0.00,WUHU216DAVISVP2,2013-08-31 20:21:00,
2013-08-31 15:26:00,96.1,75.3,29.75,SW,231,5.0,7.0,51,0.00,,,0.00,WUHU216DAVISVP2,2013-08-31 20:26:00,
2013-08-31 15:31:00,96.7,75.2,29.75,SW,233,6.0,10.0,50,0.00,,,0.00,WUHU216DAVISVP2,2013-08-31 20:31:00,
2013-08-31 15:36:00,96.5,75.7,29.75,SW,226,6.0,10.0,51,0.00,,,0.00,WUHU216DAVISVP2,2013-08-31 20:36:00,
2013-08-31 15:41:00,96.7,76.4,29.75,SSW,200,6.0,10.0,52,0.00,,,0.00,WUHU216DAVISVP2,2013-08-31 20:41:00,
2013-08-31 15:46:00,96.9,75.4,29.75,South,178,4.0,10.0,50,0.00,,,0.00,WUHU216DAVISVP2,2013-08-31 20:46:00,
2013-08-31 15:51:00,96.7,75.2,29.75,WSW,238,7.0,10.0,50,0.00,,,0.00,WUHU216DAVISVP2,2013-08-31 20:51:00,
2013-08-31 15:56:00,96.6,76.3,29.74,SSW,210,7.0,10.0,52,0.00,,,0.00,WUHU216DAVISVP2,2013-08-31 20:56:00,
2013-08-31 16:01:00,96.8,75.3,29.74,SSW,209,7.0,10.0,50,0.00,,,0.00,WUHU216DAVISVP2,2013-08-31 21:01:00,
2013-08-31 16:06:00,96.6,75.7,29.74,SSW,198,7.0,10.0,51,0.00,,,0.00,WUHU216DAVISVP2,2013-08-31 21:06:00,
2013-08-31 16:11:00,96.4,75.0,29.74,SSW,211,9.0,9.0,50,0.00,,,0.00,WUHU216DAVISVP2,2013-08-31 21:11:00,
2013-08-31 16:16:00,95.7,75.5,29.73,SW,214,6.0,10.0,52,0.00,,,0.00,WUHU216DAVISVP2,2013-08-31 21:16:00,
2013-08-31 16:21:00,96.0,75.0,29.73,SSW,211,7.0,10.0,51,0.00,,,0.00,WUHU216DAVISVP2,2013-08-31 21:21:00,
2013-08-31 16:26:00,96.4,75.3,29.73,SSW,199,6.0,10.0,51,0.00,,,0.00,WUHU216DAVISVP2,2013-08-31 21:26:00,
2013-08-31 16:31:00,96.6,75.1,29.73,SSW,213,10.0,12.0,50,0.00,,,0.00,WUHU216DAVISVP2,2013-08-31 21:31:00,
2013-08-31 16:36:00,96.5,75.7,29.73,SW,220,5.0,12.0,51,0.00,,,0.00,WUHU216DAVISVP2,2013-08-31 21:36:00,
2013-08-31 16:41:00,96.1,75.9,29.73,SSW,207,8.0,12.0,52,0.00,,,0.00,WUHU216DAVISVP2,2013-08-31 21:41:00,
2013-08-31 16:46:00,95.6,74.8,29.72,SW,214,9.0,12.0,51,0.00,,,0.00,WUHU216DAVISVP2,2013-08-31 21:46:00,
2013-08-31 16:51:00,95.7,74.9,29.72,SW,221,7.0,12.0,51,0.00,,,0.00,WUHU216DAVISVP2,2013-08-31 21:51:00,
2013-08-31 16:56:00,95.5,75.9,29.72,SW,220,7.0,11.0,53,0.00,,,0.00,WUHU216DAVISVP2,2013-08-31 21:56:00,
2013-08-31 17:01:00,95.7,76.1,29.72,SW,219,4.0,9.0,53,0.00,,,0.00,WUHU216DAVISVP2,2013-08-31 22:01:00,
2013-08-31 17:06:00,95.7,76.7,29.72,SW,214,4.0,8.0,54,0.00,,,0.00,WUHU216DAVISVP2,2013-08-31 22:06:00,
2013-08-31 17:11:00,95.5,75.9,29.72,SSW,203,5.0,9.0,53,0.00,,,0.00,WUHU216DAVISVP2,2013-08-31 22:11:00,
2013-08-31 17:16:00,95.2,76.8,29.72,SW,229,5.0,9.0,55,0.00,,,0.00,WUHU216DAVISVP2,2013-08-31 22:16:00,
2013-08-31 17:21:00,95.1,77.2,29.72,South,191,5.0,8.0,56,0.00,,,0.00,WUHU216DAVISVP2,2013-08-31 22:21:00,
2013-08-31 17:26:00,95.0,76.6,29.72,SW,215,5.0,9.0,55,0.00,,,0.00,WUHU216DAVISVP2,2013-08-31 22:26:00,
2013-08-31 17:31:00,95.0,76.6,29.72,SSW,199,7.0,9.0,55,0.00,,,0.00,WUHU216DAVISVP2,2013-08-31 22:31:00,
2013-08-31 17:36:00,94.8,75.3,29.72,SSW,208,5.0,12.0,53,0.00,,,0.00,WUHU216DAVISVP2,2013-08-31 22:36:00,
2013-08-31 17:41:00,94.7,75.5,29.72,WSW,241,7.0,12.0,54,0.00,,,0.00,WUHU216DAVISVP2,2013-08-31 22:41:00,
2013-08-31 17:46:00,94.5,75.3,29.72,SSW,203,6.0,11.0,54,0.00,,,0.00,WUHU216DAVISVP2,2013-08-31 22:46:00,
2013-08-31 17:51:00,94.3,75.4,29.72,SSW,210,7.0,10.0,54,0.00,,,0.00,WUHU216DAVISVP2,2013-08-31 22:51:00,
2013-08-31 17:56:00,94.1,75.2,29.71,South,181,4.0,10.0,54,0.00,,,0.00,WUHU216DAVISVP2,2013-08-31 22:56:00,
2013-08-31 18:01:00,93.9,75.6,29.71,SW,226,10.0,11.0,55,0.00,,,0.00,WUHU216DAVISVP2,2013-08-31 23:01:00,
2013-08-31 18:06:00,93.6,75.3,29.71,SSW,208,6.0,11.0,55,0.00,,,0.00,WUHU216DAVISVP2,2013-08-31 23:06:00,
2013-08-31 18:11:00,93.4,75.1,29.71,SW,214,4.0,10.0,55,0.00,,,0.00,WUHU216DAVISVP2,2013-08-31 23:11:00,
2013-08-31 18:16:00,93.2,75.5,29.71,SW,225,9.0,10.0,56,0.00,,,0.00,WUHU216DAVISVP2,2013-08-31 23:16:00,
2013-08-31 18:21:00,93.0,75.3,29.71,SSW,208,4.0,10.0,56,0.00,,,0.00,WUHU216DAVISVP2,2013-08-31 23:21:00,
2013-08-31 18:26:00,92.7,75.5,29.71,SSW,207,6.0,9.0,57,0.00,,,0.00,WUHU216DAVISVP2,2013-08-31 23:26:00,
2013-08-31 18:31:00,92.5,75.0,29.71,South,181,6.0,8.0,57,0.00,,,0.00,WUHU216DAVISVP2,2013-08-31 23:31:00,
2013-08-31 18:36:00,92.5,75.0,29.71,South,187,5.0,10.0,57,0.00,,,0.00,WUHU216DAVISVP2,2013-08-31 23:36:00,
2013-08-31 18:41:00,92.3,75.4,29.71,SW,221,6.0,9.0,58,0.00,,,0.00,WUHU216DAVISVP2,2013-08-31 23:41:00,
2013-08-31 18:46:00,92.0,75.1,29.71,SSW,213,6.0,9.0,58,0.00,,,0.00,WUHU216DAVISVP2,2013-08-31 23:46:00,
2013-08-31 18:51:00,91.5,75.5,29.71,SSW,196,5.0,7.0,59,0.00,,,0.00,WUHU216DAVISVP2,2013-08-31 23:51:00,
2013-08-31 18:56:00,90.9,75.9,29.71,SSW,203,4.0,7.0,61,0.00,,,0.00,WUHU216DAVISVP2,2013-08-31 23:56:00,
2013-08-31 19:01:00,90.5,76.0,29.71,South,186,4.0,7.0,62,0.00,,,0.00,WUHU216DAVISVP2,2013-09-01 00:01:00,
2013-08-31 19:06:00,90.2,75.7,29.72,SSW,206,5.0,7.0,62,0.00,,,0.00,WUHU216DAVISVP2,2013-09-01 00:06:00,
2013-08-31 19:11:00,89.8,75.8,29.72,South,182,3.0,7.0,63,0.00,,,0.00,WUHU216DAVISVP2,2013-09-01 00:11:00,
2013-08-31 19:16:00,89.4,75.9,29.72,SSW,206,3.0,5.0,64,0.00,,,0.00,WUHU216DAVISVP2,2013-09-01 00:16:00,
2013-08-31 19:21:00,89.2,75.7,29.72,SW,217,4.0,4.0,64,0.00,,,0.00,WUHU216DAVISVP2,2013-09-01 00:21:00,
2013-08-31 19:26:00,88.9,75.9,29.72,South,190,3.0,5.0,65,0.00,,,0.00,WUHU216DAVISVP2,2013-09-01 00:26:00,
2013-08-31 19:31:00,88.6,76.1,29.73,South,191,1.0,5.0,66,0.00,,,0.00,WUHU216DAVISVP2,2013-09-01 00:31:00,
2013-08-31 19:36:00,88.3,75.8,29.73,SSW,206,3.0,5.0,66,0.00,,,0.00,WUHU216DAVISVP2,2013-09-01 00:36:00,
2013-08-31 19:41:00,88.0,76.0,29.73,SSW,210,2.0,5.0,67,0.00,,,0.00,WUHU216DAVISVP2,2013-09-01 00:41:00,
2013-08-31 19:46:00,87.6,76.0,29.73,SSW,208,3.0,5.0,68,0.00,,,0.00,WUHU216DAVISVP2,2013-09-01 00:46:00,
2013-08-31 19:51:00,87.3,76.2,29.73,SSW,209,2.0,5.0,69,0.00,,,0.00,WUHU216DAVISVP2,2013-09-01 00:51:00,
2013-08-31 19:56:00,87.0,75.6,29.73,SSW,212,3.0,5.0,69,0.00,,,0.00,WUHU216DAVISVP2,2013-09-01 00:56:00,
2013-08-31 20:01:00,86.9,75.5,29.73,SSW,201,2.0,5.0,69,0.00,,,0.00,WUHU216DAVISVP2,2013-09-01 01:01:00,
2013-08-31 20:06:00,86.7,75.7,29.73,SSW,198,3.0,5.0,70,0.00,,,0.00,WUHU216DAVISVP2,2013-09-01 01:06:00,
2013-08-31 20:11:00,86.4,75.9,29.73,SSW,197,3.0,5.0,71,0.00,,,0.00,WUHU216DAVISVP2,2013-09-01 01:11:00,
2013-08-31 20:16:00,86.2,75.7,29.72,SSW,203,4.0,5.0,71,0.00,,,0.00,WUHU216DAVISVP2,2013-09-01 01:16:00,
2013-08-31 20:21:00,86.0,75.9,29.72,SSW,210,4.0,6.0,72,0.00,,,0.00,WUHU216DAVISVP2,2013-09-01 01:21:00,
2013-08-31 20:26:00,85.9,76.1,29.72,SSW,200,5.0,6.0,72,0.00,,,0.00,WUHU216DAVISVP2,2013-09-01 01:26:00,
2013-08-31 20:31:00,85.7,76.3,29.72,South,185,4.0,7.0,73,0.00,,,0.00,WUHU216DAVISVP2,2013-09-01 01:31:00,
2013-08-31 20:36:00,85.6,76.6,29.72,SSW,203,3.0,7.0,74,0.00,,,0.00,WUHU216DAVISVP2,2013-09-01 01:36:00,
2013-08-31 20:41:00,85.5,76.5,29.72,SW,215,7.0,7.0,74,0.00,,,0.00,WUHU216DAVISVP2,2013-09-01 01:41:00,
2013-08-31 20:46:00,85.5,76.5,29.72,SSW,206,6.0,10.0,74,0.00,,,0.00,WUHU216DAVISVP2,2013-09-01 01:46:00,
2013-08-31 20:51:00,85.4,76.8,29.72,SSW,198,7.0,10.0,75,0.00,,,0.00,WUHU216DAVISVP2,2013-09-01 01:51:00,
2013-08-31 20:56:00,85.5,76.9,29.72,SW,214,5.0,8.0,75,0.00,,,0.00,WUHU216DAVISVP2,2013-09-01 01:56:00,
2013-08-31 21:02:00,85.6,77.0,29.72,SSE,168,3.0,8.0,75,0.00,,,0.00,WUHU216DAVISVP2,2013-09-01 02:02:00,
2013-08-31 21:06:00,85.5,76.9,29.73,SSW,195,5.0,8.0,75,0.00,,,0.00,WUHU216DAVISVP2,2013-09-01 02:06:00,
2013-08-31 21:11:00,85.7,76.7,29.74,South,187,5.0,9.0,74,0.00,,,0.00,WUHU216DAVISVP2,2013-09-01 02:11:00,
2013-08-31 21:16:00,85.7,76.7,29.73,SW,214,6.0,9.0,74,0.00,,,0.00,WUHU216DAVISVP2,2013-09-01 02:16:00,
2013-08-31 21:21:00,85.8,77.2,29.73,South,189,5.0,9.0,75,0.00,,,0.00,WUHU216DAVISVP2,2013-09-01 02:21:00,
2013-08-31 21:26:00,85.8,77.0,29.73,SSW,210,7.0,10.0,75,0.00,,,0.00,WUHU216DAVISVP2,2013-09-01 02:26:00,
2013-08-31 21:31:00,85.7,77.1,29.73,SSW,198,5.0,10.0,75,0.00,,,0.00,WUHU216DAVISVP2,2013-09-01 02:31:00,
2013-08-31 21:36:00,85.7,77.1,29.73,SW,214,7.0,10.0,75,0.00,,,0.00,WUHU216DAVISVP2,2013-09-01 02:36:00,
2013-08-31 21:41:00,85.7,77.1,29.73,South,186,5.0,10.0,75,0.00,,,0.00,WUHU216DAVISVP2,2013-09-01 02:41:00,
2013-08-31 21:46:00,85.7,76.9,29.73,South,186,4.0,10.0,75,0.00,,,0.00,WUHU216DAVISVP2,2013-09-01 02:46:00,
2013-08-31 21:51:00,85.5,76.7,29.73,SSW,212,6.0,10.0,75,0.00,,,0.00,WUHU216DAVISVP2,2013-09-01 02:51:00,
2013-08-31 21:56:00,85.5,77.1,29.74,SSW,197,3.0,10.0,76,0.00,,,0.00,WUHU216DAVISVP2,2013-09-01 02:56:00,
2013-08-31 22:01:00,85.5,77.1,29.75,SSW,212,2.0,10.0,76,0.00,,,0.00,WUHU216DAVISVP2,2013-09-01 03:01:00,
2013-08-31 22:06:00,85.2,77.2,29.76,NNE,21,2.0,7.0,77,0.00,,,0.00,WUHU216DAVISVP2,2013-09-01 03:06:00,
2013-08-31 22:11:00,84.9,76.9,29.77,ENE,77,0.0,6.0,77,0.00,,,0.00,WUHU216DAVISVP2,2013-09-01 03:11:00,
2013-08-31 22:16:00,84.9,76.7,29.77,NW,320,1.0,4.0,76,0.00,,,0.00,WUHU216DAVISVP2,2013-09-01 03:16:00,
2013-08-31 22:21:00,85.0,76.4,29.77,WNW,286,2.0,7.0,75,0.00,,,0.00,WUHU216DAVISVP2,2013-09-01 03:21:00,
2013-08-31 22:26:00,85.4,76.4,29.77,NW,319,1.0,7.0,74,0.00,,,0.00,WUHU216DAVISVP2,2013-09-01 03:26:00,
2013-08-31 22:31:00,85.4,76.4,29.76,West,268,1.0,5.0,74,0.00,,,0.00,WUHU216DAVISVP2,2013-09-01 03:31:00,
2013-08-31 22:36:00,85.4,76.4,29.76,WSW,244,1.0,4.0,74,0.00,,,0.00,WUHU216DAVISVP2,2013-09-01 03:36:00,
2013-08-31 22:41:00,85.3,75.9,29.76,SSW,193,0.0,3.0,73,0.00,,,0.00,WUHU216DAVISVP2,2013-09-01 03:41:00,
2013-08-31 22:46:00,85.2,76.2,29.76,WNW,283,0.0,2.0,74,0.00,,,0.00,WUHU216DAVISVP2,2013-09-01 03:46:00,
2013-08-31 22:51:00,85.0,76.0,29.76,SSW,205,0.0,2.0,74,0.00,,,0.00,WUHU216DAVISVP2,2013-09-01 03:51:00,
2013-08-31 22:56:00,84.9,76.3,29.75,SSW,198,1.0,3.0,75,0.00,,,0.00,WUHU216DAVISVP2,2013-09-01 03:56:00,
2013-08-31 23:01:00,84.4,76.2,29.75,SSW,196,1.0,3.0,76,0.00,,,0.00,WUHU216DAVISVP2,2013-09-01 04:01:00,
2013-08-31 23:06:00,84.1,75.9,29.75,SSW,203,4.0,4.0,76,0.00,,,0.00,WUHU216DAVISVP2,2013-09-01 04:06:00,
2013-08-31 23:11:00,83.9,76.1,29.75,SW,217,0.0,4.0,77,0.00,,,0.00,WUHU216DAVISVP2,2013-09-01 04:11:00,
2013-08-31 23:16:00,83.6,76.2,29.75,SSW,211,0.0,4.0,78,0.00,,,0.00,WUHU216DAVISVP2,2013-09-01 04:16:00,
2013-08-31 23:21:00,83.5,76.4,29.75,SSW,202,2.0,2.0,79,0.00,,,0.00,WUHU216DAVISVP2,2013-09-01 04:21:00,
2013-08-31 23:26:00,83.4,76.3,29.75,SSW,200,3.0,4.0,79,0.00,,,0.00,WUHU216DAVISVP2,2013-09-01 04:26:00,
2013-08-31 23:31:00,83.3,76.2,29.75,SSW,204,1.0,4.0,79,0.00,,,0.00,WUHU216DAVISVP2,2013-09-01 04:31:00,
2013-08-31 23:36:00,83.2,76.5,29.75,SSW,198,3.0,4.0,80,0.00,,,0.00,WUHU216DAVISVP2,2013-09-01 04:36:00,
2013-08-31 23:41:00,82.9,76.6,29.74,SSW,206,2.0,5.0,81,0.00,,,0.00,WUHU216DAVISVP2,2013-09-01 04:41:00,
2013-08-31 23:46:00,82.5,76.5,29.74,SSW,196,1.0,5.0,82,0.00,,,0.00,WUHU216DAVISVP2,2013-09-01 04:46:00,
2013-08-31 23:51:00,82.3,76.3,29.74,SSW,197,3.0,5.0,82,0.00,,,0.00,WUHU216DAVISVP2,2013-09-01 04:51:00,
2013-08-31 23:56:00,82.1,76.5,29.74,SW,229,2.0,5.0,83,0.00,,,0.00,WUHU216DAVISVP2,2013-09-01 04:56:00,